Main page
METAR-TAF:

METAR-TAF

Airports :

Mangalore, India

Mangaluru Airport

latitude: 12-55N, longitude: 074-53E, elevation: 102 m

Current weather observation

The report was made 30 minutes ago, at 11:30 UTC
Wind 8 kt from the West
Temperature 31°C
Humidity 66%
Pressure 1009 hPa
Visibility: 6000 m

METAR: VOML 251130Z 27008KT 6000 NSC 31/24 Q1009 NOSIG

Time: 17:30 (12:00 UTC)

Forecast

The report was made 1 hour and 0 minutes ago, at 11:00 UTC
Forecast valid from 25 at 12 UTC to 26 at 18 UTC
Wind 5 kt from the West
Visibility: 6000 m
Few clouds at a height of 1500 ft
Becoming
from 25 at 15 UTC to 25 at 16 UTC
Wind 5 kt from the East
Temporary
from 26 at 00 UTC to 26 at 03 UTC
Visibility: 3000 m
Few clouds at a height of 1000 ft
mist
Becoming
from 26 at 06 UTC to 26 at 07 UTC
Wind 10 kt from the West

TAF: VOML 251100Z 2512/2618 27005KT 6000 FEW015 BECMG 2515/2516 09005KT TEMPO 2600/2603 3000 BR FEW010 BECMG 2606/2607 27010KT

Weather observations and forecasts of more than 4000 airports (METAR and TAF reports).

The available stations are represented by yellow and red dots on the map.

Hover mouse over dot to see the name of the station.

Then click to see weather observations and forecasts.

To change the map : click on the green buttons with a black cross to zoom in, on the green button with a dash to zoom out, or on the green arrows for adjacent maps.


METAR-TAF: